Louis Jolliet — VA7153 — position and weather

sailwx.info

Track history (hours):
 
Tides and Currents Weather Stations Pressure Air Temp Water Temp Dewpoint Dewpoint Depression Visibility Wind Speed Wind Dir Waves Ship Positions

Louis Jolliet

Last reported at 2016-Jul-24 09:33 UTC. Time now 2016-Jul-25 11:53 UTC.
Position N 46°19' W 072°33'.

Length 50 m.

Type: Passenger vessel. MMSI: 316013356.

Date/timePositionNaut miles runAvg speedWind from/ knotsBaromVisibWave heightAir tempDewpointWater temp
2016-Jul-24 09:33N 46°19' W 072°33'1212.2
2016-Jul-24 08:34N 46°13' W 072°49'1212.2
2016-Jul-24 07:33N 46°04' W 073°02'1211.7
2016-Jul-24 06:33N 45°56' W 073°13'1312.7
2016-Jul-24 05:33N 45°45' W 073°23'1312.6
2016-Jul-24 04:33N 45°34' W 073°31'4 3.4
2016-Jul-24 03:23N 45°30' W 073°33'2 2.6
2016-Jul-24 02:33N 45°32' W 073°32'1 1.1
2016-Jul-24 01:33N 45°33' W 073°31'5 5.2
2016-Jul-24 00:33N 45°38' W 073°29'6 6.1
2016-Jul-23 23:33N 45°32' W 073°32'2 0.6
2016-Jul-23 19:33N 45°30' W 073°33'8 7.5
2016-Jul-23 18:33N 45°37' W 073°30'9 8.6
2016-Jul-23 17:33N 45°45' W 073°24'9 9.0
2016-Jul-23 16:33N 45°52' W 073°16'9 8.8
2016-Jul-23 15:33N 46°00' W 073°11'9 8.6
2016-Jul-23 14:33N 46°05' W 073°01'10 8.7
2016-Jul-23 13:25N 46°12' W 072°51'8 9.4
2016-Jul-23 12:33N 46°16' W 072°40'  
2016-Jul-21 08:32N 46°13' W 072°47'1212.1
2016-Jul-21 07:33N 46°05' W 073°00'1211.9
2016-Jul-21 06:33N 45°57' W 073°13'1312.8
2016-Jul-21 05:33N 45°46' W 073°22'1313.3
2016-Jul-21 04:33N 45°34' W 073°30'5 3.8
2016-Jul-21 03:20N 45°30' W 073°33'2 2.7
2016-Jul-21 02:33N 45°32' W 073°32'1 1.3
2016-Jul-21 01:33N 45°33' W 073°31'5 4.8
2016-Jul-21 00:33N 45°38' W 073°29'6 5.9
2016-Jul-20 23:33N 45°32' W 073°32'2 1.0
2016-Jul-20 21:15N 45°30' W 073°33'1 2.1
2016-Jul-20 20:33N 45°32' W 073°32'8 8.5
2016-Jul-20 19:33N 45°40' W 073°28'8 8.5
2016-Jul-20 18:33N 45°47' W 073°22'9 8.9
2016-Jul-20 17:34N 45°54' W 073°14'9 9.1
2016-Jul-20 16:33N 46°02' W 073°09'9 8.9
2016-Jul-20 15:33N 46°07' W 072°58'9 8.6
2016-Jul-20 14:30N 46°13' W 072°49'  
2016-Jul-17 09:10N 46°16' W 072°39'712.2
2016-Jul-17 08:33N 46°13' W 072°49'1212.4
2016-Jul-17 07:33N 46°05' W 073°01'1211.7
2016-Jul-17 06:33N 45°56' W 073°13'2613.0
2016-Jul-17 04:33N 45°33' W 073°31'3 3.4
2016-Jul-17 03:33N 45°30' W 073°33'2 2.1
2016-Jul-17 02:33N 45°32' W 073°32'1 1.4
2016-Jul-17 01:33N 45°33' W 073°31'5 5.1
2016-Jul-17 00:33N 45°38' W 073°29'6 6.3
2016-Jul-16 23:33N 45°32' W 073°32'2 0.6
2016-Jul-16 19:31N 45°30' W 073°33'7 6.9
2016-Jul-16 18:33N 45°37' W 073°30'9 8.5
2016-Jul-16 17:33N 45°44' W 073°25'9 8.9
2016-Jul-16 16:33N 45°51' W 073°16'9 8.8
2016-Jul-16 15:34N 45°59' W 073°11'8 8.4
2016-Jul-16 14:33N 46°04' W 073°02'9 8.9
2016-Jul-16 13:33N 46°11' W 072°54'  
Track history (hours):
 
Tides and Currents Weather Stations Pressure Air Temp Water Temp Dewpoint Dewpoint Depression Visibility Wind Speed Wind Dir Waves Ship Positions

Louis Jolliet

Last reported at 2016-Jul-24 09:33 UTC. Time now 2016-Jul-25 11:53 UTC.
Position N 46°19' W 072°33'.

Length 50 m.

Type: Passenger vessel. MMSI: 316013356.

Date/timePositionNaut miles runAvg speedWind from/ knotsBaromVisibWave heightAir tempDewpointWater temp
2016-Jul-24 09:33N 46°19' W 072°33'1212.2
2016-Jul-24 08:34N 46°13' W 072°49'1212.2
2016-Jul-24 07:33N 46°04' W 073°02'1211.7
2016-Jul-24 06:33N 45°56' W 073°13'1312.7
2016-Jul-24 05:33N 45°45' W 073°23'1312.6
2016-Jul-24 04:33N 45°34' W 073°31'4 3.4
2016-Jul-24 03:23N 45°30' W 073°33'2 2.6
2016-Jul-24 02:33N 45°32' W 073°32'1 1.1
2016-Jul-24 01:33N 45°33' W 073°31'5 5.2
2016-Jul-24 00:33N 45°38' W 073°29'6 6.1
2016-Jul-23 23:33N 45°32' W 073°32'2 0.6
2016-Jul-23 19:33N 45°30' W 073°33'8 7.5
2016-Jul-23 18:33N 45°37' W 073°30'9 8.6
2016-Jul-23 17:33N 45°45' W 073°24'9 9.0
2016-Jul-23 16:33N 45°52' W 073°16'9 8.8
2016-Jul-23 15:33N 46°00' W 073°11'9 8.6
2016-Jul-23 14:33N 46°05' W 073°01'10 8.7
2016-Jul-23 13:25N 46°12' W 072°51'8 9.4
2016-Jul-23 12:33N 46°16' W 072°40'  
2016-Jul-21 08:32N 46°13' W 072°47'1212.1
2016-Jul-21 07:33N 46°05' W 073°00'1211.9
2016-Jul-21 06:33N 45°57' W 073°13'1312.8
2016-Jul-21 05:33N 45°46' W 073°22'1313.3
2016-Jul-21 04:33N 45°34' W 073°30'5 3.8
2016-Jul-21 03:20N 45°30' W 073°33'2 2.7
2016-Jul-21 02:33N 45°32' W 073°32'1 1.3
2016-Jul-21 01:33N 45°33' W 073°31'5 4.8
2016-Jul-21 00:33N 45°38' W 073°29'6 5.9
2016-Jul-20 23:33N 45°32' W 073°32'2 1.0
2016-Jul-20 21:15N 45°30' W 073°33'1 2.1
2016-Jul-20 20:33N 45°32' W 073°32'8 8.5
2016-Jul-20 19:33N 45°40' W 073°28'8 8.5
2016-Jul-20 18:33N 45°47' W 073°22'9 8.9
2016-Jul-20 17:34N 45°54' W 073°14'9 9.1
2016-Jul-20 16:33N 46°02' W 073°09'9 8.9
2016-Jul-20 15:33N 46°07' W 072°58'9 8.6
2016-Jul-20 14:30N 46°13' W 072°49'  
2016-Jul-17 09:10N 46°16' W 072°39'712.2
2016-Jul-17 08:33N 46°13' W 072°49'1212.4
2016-Jul-17 07:33N 46°05' W 073°01'1211.7
2016-Jul-17 06:33N 45°56' W 073°13'2613.0
2016-Jul-17 04:33N 45°33' W 073°31'3 3.4
2016-Jul-17 03:33N 45°30' W 073°33'2 2.1
2016-Jul-17 02:33N 45°32' W 073°32'1 1.4
2016-Jul-17 01:33N 45°33' W 073°31'5 5.1
2016-Jul-17 00:33N 45°38' W 073°29'6 6.3
2016-Jul-16 23:33N 45°32' W 073°32'2 0.6
2016-Jul-16 19:31N 45°30' W 073°33'7 6.9
2016-Jul-16 18:33N 45°37' W 073°30'9 8.5
2016-Jul-16 17:33N 45°44' W 073°25'9 8.9
2016-Jul-16 16:33N 45°51' W 073°16'9 8.8
2016-Jul-16 15:34N 45°59' W 073°11'8 8.4
2016-Jul-16 14:33N 46°04' W 073°02'9 8.9
2016-Jul-16 13:33N 46°11' W 072°54'  

Dump ship's entire track history